Hassler — WTEK — position and weather

sailwx.info

Track history (hours):
 
Tides and Currents Weather Stations Pressure Air Temp Water Temp Dewpoint Dewpoint Depression Visibility Wind Speed Wind Dir Waves Ship Positions

Oceanographic research ship Hassler (USA)

Last reported at 2017-Mar-22 20:54 UTC. Time now 2017-Mar-22 22:10 UTC.
Position N 38°48' W 075°06'.

Length 37 m; draft 3.8 m.

Type: . MMSI: 369970091.

Wind from 300 at 27 knots

Barometer 1022.3 mb
Air temperature 4.0 ° C

Date/timePositionNaut miles runAvg speedWind from/ knotsBaromVisibWave heightAir tempDewpointWater temp
2017-Mar-22 20:54N 38°48' W 075°06'0 0.0 300 / 271022.3 4.0
2017-Mar-22 19:54N 38°48' W 075°06'0 0.0 310 / 281021.3 4.0
2017-Mar-22 18:54N 38°48' W 075°06'0 0.0 310 / 271021.0 3.9
2017-Mar-22 17:54N 38°48' W 075°06'0 0.0 300 / 301020.5 3.9
2017-Mar-22 16:55N 38°48' W 075°06'0 0.0 300 / 301019.9 4.1
2017-Mar-22 15:55N 38°48' W 075°06'0 0.0 330 / 341019.0 4.0
2017-Mar-22 14:56N 38°48' W 075°06'0 0.0 300 / 341018.0 4.8
2017-Mar-22 13:56N 38°48' W 075°06'5 4.7 320 / 301016.5 5.4
2017-Mar-22 12:56N 38°48' W 075°00'8 7.6 330 / 321014.7 6.3
2017-Mar-22 11:56N 38°42' W 074°54'8 7.6 340 / 221013.4 7.2
2017-Mar-22 10:56N 38°36' W 074°48'8 7.6 270 / 221011.9 8.2
2017-Mar-22 09:56N 38°30' W 074°42'1212.0 300 / 181010.6 8.1
2017-Mar-22 08:56N 38°18' W 074°42'1312.9 260 / 191010.2 8.9
2017-Mar-22 07:56N 38°06' W 074°48'8 7.6 270 / 201009.2 9.2
2017-Mar-22 06:56N 38°00' W 074°54'1212.9 270 / 151009.8 9.3
2017-Mar-22 06:00N 37°48' W 074°54'571.1 1012.710.8 8.5 6.5-6.8
2017-Mar-22 05:56N 37°48' W 075°00'1515.6 280 / 131010.3 9.8
2017-Mar-22 04:57N 37°36' W 075°12'8 7.7 280 / 111010.9 11.2
2017-Mar-22 03:57N 37°30' W 075°18'1312.9 310 / 141011.0 11.7
2017-Mar-22 02:57N 37°18' W 075°24'1312.9 320 / 161011.9 11.0
2017-Mar-22 01:57N 37°06' W 075°30'1212.0 020 / 151011.4 10.6
2017-Mar-22 00:57N 36°54' W 075°30'1212.6 020 / 111011.4 9.1
2017-Mar-22 00:00N 36°42' W 075°30'6 5.7 350 / 91014.110.8 10.0 7.3-8.9
2017-Mar-21 22:57N 36°36' W 075°30'1212.0 020 / 91010.9 10.8
2017-Mar-21 21:57N 36°24' W 075°30'1212.0 010 / 111011.1 10.9
2017-Mar-21 20:57N 36°12' W 075°30'1312.9 350 / 171010.7 11.0
2017-Mar-21 19:57N 36°00' W 075°24'1212.0 280 / 141010.5 13.2
2017-Mar-21 18:57N 35°48' W 075°24'1516.3 240 / 121010.2 13.8
2017-Mar-21 18:00N 35°36' W 075°12'8154.6 230 / 151013.210.8 15.911.8-9.4
2017-Mar-21 17:57N 35°42' W 075°18'1212.2 210 / 201010.3 12.9
2017-Mar-21 16:58N 35°30' W 075°18'1313.0 210 / 161011.2 13.4
2017-Mar-21 15:58N 35°18' W 075°12'1212.0 190 / 151012.2 14.7
2017-Mar-21 14:58N 35°06' W 075°12'1615.5 210 / 201013.1 19.1
2017-Mar-21 13:58N 34°54' W 075°24'1211.5 220 / 161013.7 18.7
2017-Mar-21 12:58N 34°48' W 075°36'1211.5 230 / 141014.1 18.4
2017-Mar-21 11:58N 34°42' W 075°48'1313.0 230 / 121013.9 17.3
2017-Mar-21 10:58N 34°30' W 075°54'1211.6 240 / 151014.3 16.7
2017-Mar-21 09:58N 34°24' W 076°06'1211.6 270 / 171015.1 15.9
2017-Mar-21 08:58N 34°18' W 076°18'1615.6 240 / 181014.2 17.1
2017-Mar-21 07:58N 34°06' W 076°30'1211.8 240 / 171015.1 17.1
2017-Mar-21 06:59N 34°00' W 076°42'1313.2 240 / 161015.9 17.0
2017-Mar-21 06:00N 33°48' W 076°48'8468.0 250 / 151019.510.8 15.512.1-21.2
2017-Mar-21 05:59N 33°54' W 076°54'1615.6 240 / 171016.6 16.7
2017-Mar-21 04:59N 33°42' W 077°06'8 7.8 250 / 171017.4 16.5
2017-Mar-21 03:59N 33°36' W 077°12'1615.6 250 / 181018.1 17.0
2017-Mar-21 02:59N 33°24' W 077°24'1211.7 240 / 151018.1 16.7
2017-Mar-21 01:59N 33°18' W 077°36'1515.0 260 / 151018.0 16.3
2017-Mar-21 00:59N 33°18' W 077°54'8 8.0 230 / 121017.7 15.6
2017-Mar-21 00:00N 33°12' W 078°00'1616.0 230 / 131020.010.8 14.5 9.1-18.6
2017-Mar-20 22:59N 33°06' W 078°18'1211.7 220 / 91018.0 14.9
2017-Mar-20 21:59N 33°00' W 078°30'1211.7 240 / 111018.1 15.2
2017-Mar-20 20:59N 32°54' W 078°42'1010.1 220 / 91018.5 14.5
2017-Mar-20 19:59N 32°54' W 078°54'1211.9 190 / 71018.9 13.9
2017-Mar-20 19:00N 32°48' W 079°06'8 7.8 190 / 51019.8 13.8
2017-Mar-20 18:00N 32°42' W 079°12'36 0.8 170 / 51025.610.8 13.4 7.4-16.5
2017-Mar-18 19:49N 32°48' W 079°54'0 0.0 160 / 131015.2 20.4
2017-Mar-18 18:49N 32°48' W 079°54'0 0.0 160 / 111016.1 19.4
2017-Mar-18 17:49N 32°48' W 079°54'0 0.0 180 / 111017.5 21.1
2017-Mar-18 16:49N 32°48' W 079°54'0 0.0 250 / 101019.3 19.8
2017-Mar-18 15:49N 32°48' W 079°54'0 0.0 190 / 91020.7 17.1
2017-Mar-18 14:49N 32°48' W 079°54'0 0.0 220 / 81021.5 14.9
2017-Mar-18 13:49N 32°48' W 079°54'0 0.0 190 / 71021.7 14.4
2017-Mar-18 12:49N 32°48' W 079°54'0 0.0 180 / 61021.7 13.7
2017-Mar-18 11:49N 32°48' W 079°54'0 0.0 190 / 61022.0 13.7
2017-Mar-18 10:49N 32°48' W 079°54'0 0.0 190 / 101022.0 13.8
2017-Mar-18 09:50N 32°48' W 079°54'0 0.0 220 / 71022.1 13.6
2017-Mar-18 08:50N 32°48' W 079°54'0 0.0 190 / 51022.1 12.9
2017-Mar-18 07:50N 32°48' W 079°54'0 0.0 190 / 71022.0 12.7
2017-Mar-18 06:50N 32°48' W 079°54'0 0.0 180 / 51022.8 12.2
2017-Mar-18 05:50N 32°48' W 079°54'0 0.0 190 / 31023.1 12.4
2017-Mar-18 04:50N 32°48' W 079°54'0 0.0 190 / 51023.2 12.6
2017-Mar-18 03:50N 32°48' W 079°54'0 0.0 170 / 51023.7 12.1
2017-Mar-18 02:50N 32°48' W 079°54'0 0.0 170 / 41024.4 11.6
2017-Mar-18 01:50N 32°48' W 079°54'0 0.0 170 / 41024.9 11.9
2017-Mar-18 00:50N 32°48' W 079°54'0 0.0 160 / 51025.2 12.3
2017-Mar-17 22:51N 32°48' W 079°54'0 0.0 160 / 121024.5 14.2
2017-Mar-17 21:51N 32°48' W 079°54'0 0.0 150 / 111024.4 14.9
2017-Mar-17 20:51N 32°48' W 079°54'0 0.0 140 / 111025.0 15.1
2017-Mar-17 19:51N 32°48' W 079°54'0 0.0 140 / 81025.5 15.6
2017-Mar-17 18:51N 32°48' W 079°54'0 0.0 110 / 131025.9 13.8
2017-Mar-17 17:51N 32°48' W 079°54'0 0.0 110 / 111027.0 13.8
2017-Mar-17 16:51N 32°48' W 079°54'0 0.0 110 / 91028.1 13.6
2017-Mar-17 15:51N 32°48' W 079°54'0 0.0 120 / 81028.3 12.9
2017-Mar-17 14:51N 32°48' W 079°54'0 0.0 100 / 41028.5 12.3
2017-Mar-17 13:51N 32°48' W 079°54'0 0.0 340 / 31028.8 7.7
2017-Mar-17 12:52N 32°48' W 079°54'0 0.0 330 / 11028.5 5.1
2017-Mar-17 11:52N 32°48' W 079°54'0 0.0 350 / 21027.7 4.2
2017-Mar-17 10:52N 32°48' W 079°54'0 0.0 350 / 11027.1 5.1
2017-Mar-17 09:52N 32°48' W 079°54'0 0.0 360 / 11026.2 6.3
2017-Mar-17 08:52N 32°48' W 079°54'0 0.0 1025.6 5.1
2017-Mar-17 07:52N 32°48' W 079°54'0 0.0 130 / 11025.3 4.7
2017-Mar-17 06:52N 32°48' W 079°54'0 0.0 180 / 31025.4 5.0
2017-Mar-17 05:52N 32°48' W 079°54'0 0.0 270 / 11025.4 5.5
2017-Mar-17 04:52N 32°48' W 079°54'0 0.0 260 / 31025.4 5.8
2017-Mar-17 03:52N 32°48' W 079°54'0 0.0 230 / 41025.5 6.5
2017-Mar-17 02:53N 32°48' W 079°54'0 0.0 200 / 51025.4 6.7
2017-Mar-17 01:53N 32°48' W 079°54'0 0.0 190 / 51025.1 7.2
2017-Mar-17 00:53N 32°48' W 079°54'0 0.0 250 / 41024.1 9.4
2017-Mar-16 22:53N 32°48' W 079°54'0 0.0 280 / 71022.7 11.1
2017-Mar-16 21:53N 32°48' W 079°54'0 0.0 310 / 41022.4 10.8
2017-Mar-16 20:53N 32°48' W 079°54'0 0.0 260 / 71022.7 10.5
2017-Mar-16 19:53N 32°48' W 079°54'0 0.0 280 / 71023.3 9.0
2017-Mar-16 18:53N 32°48' W 079°54'0 0.0 290 / 71023.8 8.0
2017-Mar-16 17:53N 32°48' W 079°54'0 0.0 330 / 21025.0 6.7
2017-Mar-16 16:53N 32°48' W 079°54'0 0.0 310 / 41025.9 5.2
2017-Mar-16 15:54N 32°48' W 079°54'0 0.0 330 / 91026.3 4.2
2017-Mar-16 14:54N 32°48' W 079°54'0 0.0 330 / 91026.7 3.4
2017-Mar-16 13:54N 32°48' W 079°54'0 0.0 350 / 91026.7 2.3
2017-Mar-16 12:54N 32°48' W 079°54'0 0.0 010 / 91026.0 1.7
2017-Mar-16 11:54N 32°48' W 079°54'0 0.0 340 / 61025.6 0.4
2017-Mar-16 10:54N 32°48' W 079°54'0 0.0 340 / 61025.2 0.7
2017-Mar-16 09:54N 32°48' W 079°54'0 0.0 340 / 61024.7 1.1
2017-Mar-16 08:54N 32°48' W 079°54'0 0.0 330 / 41024.0 1.6
2017-Mar-16 07:54N 32°48' W 079°54'0 0.0 320 / 41023.8 2.3
2017-Mar-16 06:54N 32°48' W 079°54'0 0.0 330 / 51023.8 3.2
2017-Mar-16 05:55N 32°48' W 079°54'0 0.0 330 / 51023.2 3.5
2017-Mar-16 04:55N 32°48' W 079°54'0 0.0 320 / 31022.9 5.0
2017-Mar-16 03:55N 32°48' W 079°54'0 0.0 260 / 71022.6 4.3
2017-Mar-16 02:55N 32°48' W 079°54'0 0.0 260 / 41022.1 4.8
2017-Mar-16 01:54N 32°48' W 079°54'0 0.0 270 / 61021.6 5.3
2017-Mar-16 00:54N 32°48' W 079°54'0 0.0 280 / 41021.0 6.3
2017-Mar-15 22:54N 32°48' W 079°54'0 0.0 300 / 81019.2 8.2
2017-Mar-15 21:54N 32°48' W 079°54'0 0.0 290 / 161018.7 7.9
2017-Mar-15 20:54N 32°48' W 079°54'0 0.0 320 / 81018.5 7.5
2017-Mar-15 19:54N 32°48' W 079°54'0 0.0 300 / 121018.4 7.2
2017-Mar-15 18:55N 32°48' W 079°54'0 0.0 330 / 141018.4 6.7
2017-Mar-15 17:55N 32°48' W 079°54'0 0.0 280 / 171019.3 5.4
2017-Mar-15 16:55N 32°48' W 079°54'0 0.0 300 / 121020.1 4.8
2017-Mar-15 15:55N 32°48' W 079°54'0 0.0 290 / 121020.5 3.8
2017-Mar-15 14:55N 32°48' W 079°54'0 0.0 320 / 61020.1 2.9
2017-Mar-15 13:55N 32°48' W 079°54'0 0.0 310 / 101020.0 2.3
2017-Mar-15 12:55N 32°48' W 079°54'0 0.0 320 / 91019.5 1.9
2017-Mar-15 11:55N 32°48' W 079°54'0 0.0 310 / 61018.5 1.9
2017-Mar-15 10:55N 32°48' W 079°54'0 0.0 320 / 81017.7 2.1
2017-Mar-15 09:55N 32°48' W 079°54'0 0.0 330 / 121016.6 2.9
2017-Mar-15 08:56N 32°48' W 079°54'0 0.0 320 / 111015.5 3.6
2017-Mar-15 07:56N 32°48' W 079°54'0 0.0 330 / 101014.3 5.0
2017-Mar-15 06:56N 32°48' W 079°54'0 0.0 300 / 161014.0 6.0
2017-Mar-15 05:56N 32°48' W 079°54'0 0.0 300 / 121013.2 6.8
2017-Mar-15 04:56N 32°48' W 079°54'0 0.0 280 / 141012.4 7.3
2017-Mar-15 03:56N 32°48' W 079°54'0 0.0 300 / 121011.8 8.7
2017-Mar-15 02:56N 32°48' W 079°54'0 0.0 270 / 161011.2 9.5
2017-Mar-15 01:56N 32°48' W 079°54'0 0.0 270 / 151010.4 10.7
2017-Mar-15 00:56N 32°48' W 079°54'0 0.0 270 / 131009.1 12.6
2017-Mar-14 22:56N 32°48' W 079°54'0 0.0 260 / 91007.5 13.8
2017-Mar-14 21:57N 32°48' W 079°54'0 0.0 260 / 131006.7 14.1
2017-Mar-14 20:57N 32°48' W 079°54'0 0.0 260 / 121007.0 14.3
2017-Mar-14 19:57N 32°48' W 079°54'0 0.0 290 / 141007.6 12.3
2017-Mar-14 18:57N 32°48' W 079°54'0 0.0 270 / 131008.0 11.7
2017-Mar-14 17:57N 32°48' W 079°54'0 0.0 260 / 151008.5 10.8
2017-Mar-14 16:57N 32°48' W 079°54'8 7.8 240 / 191008.6 9.6
2017-Mar-14 15:57N 32°42' W 079°48'8 7.8 240 / 201007.9 8.8
2017-Mar-14 14:57N 32°36' W 079°42'8 7.8 250 / 251007.6 7.7
2017-Mar-14 13:57N 32°30' W 079°36'8 7.9 260 / 311007.0 7.7
2017-Mar-14 12:57N 32°24' W 079°30'8 8.3 250 / 321005.8 8.7
2017-Mar-14 12:00N 32°18' W 079°36'0 0.0 290 / 351006.810.8 10.0 8.1-18.6
2017-Mar-14 11:58N 32°18' W 079°36'1010.1 280 / 301004.1 8.7
2017-Mar-14 10:58N 32°18' W 079°48'6 6.0 270 / 271003.2 8.7
2017-Mar-14 09:58N 32°12' W 079°48'5 5.1 280 / 211003.2 9.1
2017-Mar-14 08:58N 32°12' W 079°54'8 7.9 270 / 261003.7 9.1
2017-Mar-14 07:58N 32°06' W 080°00'8 7.9 270 / 191003.7 10.2
2017-Mar-14 06:58N 32°00' W 080°06'8 8.1 290 / 211004.2 10.5
2017-Mar-14 06:00N 31°54' W 080°12'5152.8 1016.0 5.4 11.810.5-16.9
2017-Mar-14 05:58N 31°54' W 080°18'8 7.9 300 / 91004.8 11.8
2017-Mar-14 04:58N 31°48' W 080°24'8 7.9 060 / 21005.8 11.7
2017-Mar-14 03:58N 31°42' W 080°30'8 7.9 320 / 91007.0 11.6
2017-Mar-14 02:58N 31°36' W 080°36'8 7.9 300 / 121008.6 12.0
2017-Mar-14 01:58N 31°30' W 080°42'6 6.1 310 / 131009.7 12.2
2017-Mar-14 00:59N 31°24' W 080°42'6 6.1 310 / 181009.0 13.0
2017-Mar-14 00:00N 31°18' W 080°42'1615.5 360 / 181012.0 5.4 14.013.2-17.9
2017-Mar-13 22:59N 31°06' W 080°54'8 7.9 330 / 231009.1 14.3
2017-Mar-13 21:59N 31°00' W 081°00'8 7.9 320 / 221009.4 14.3
2017-Mar-13 20:59N 30°54' W 081°06'8 7.9 320 / 251009.9 14.7
2017-Mar-13 19:59N 30°48' W 081°12'6 6.0 320 / 211010.7 15.1
2017-Mar-13 18:59N 30°42' W 081°12'1313.3 310 / 211012.4 14.9
2017-Mar-13 18:00N 30°30' W 081°06'42 3.7 350 / 161016.0 5.4 15.814.8-18.8
2017-Mar-13 06:44N 29°48' W 081°06'8 7.9 360 / 221017.8 17.3
2017-Mar-13 05:44N 29°54' W 081°12'810.8 340 / 271018.0 16.8
2017-Mar-13 05:00N 30°00' W 081°06'519.5 030 / 241021.010.8 15.914.8-19.5
2017-Mar-13 04:44N 30°00' W 081°12'0 0.0 360 / 281018.5 16.0
2017-Mar-13 03:44N 30°00' W 081°12'0 0.0 010 / 301018.6 15.4
2017-Mar-13 02:44N 30°00' W 081°12'0 0.0 010 / 271018.6 15.4
2017-Mar-13 01:44N 30°00' W 081°12'810.8 360 / 261018.8 16.9
2017-Mar-13 01:00N 30°06' W 081°06'519.5 110 / 251021.5 5.4 17.015.4-19.5
2017-Mar-13 00:44N 30°06' W 081°12'6 3.0 010 / 231018.4 16.8
2017-Mar-12 22:44N 30°00' W 081°12'0 0.0 030 / 241017.3 16.6
2017-Mar-12 21:44N 30°00' W 081°12'   010 / 251016.7 16.1
Track history (hours):
 
Tides and Currents Weather Stations Pressure Air Temp Water Temp Dewpoint Dewpoint Depression Visibility Wind Speed Wind Dir Waves Ship Positions

Oceanographic research ship Hassler (USA)

Last reported at 2017-Mar-22 20:54 UTC. Time now 2017-Mar-22 22:10 UTC.
Position N 38°48' W 075°06'.

Length 37 m; draft 3.8 m.

Type: . MMSI: 369970091.

Wind from 300 at 27 knots

Barometer 1022.3 mb
Air temperature 4.0 ° C

Date/timePositionNaut miles runAvg speedWind from/ knotsBaromVisibWave heightAir tempDewpointWater temp
2017-Mar-22 20:54N 38°48' W 075°06'0 0.0 300 / 271022.3 4.0
2017-Mar-22 19:54N 38°48' W 075°06'0 0.0 310 / 281021.3 4.0
2017-Mar-22 18:54N 38°48' W 075°06'0 0.0 310 / 271021.0 3.9
2017-Mar-22 17:54N 38°48' W 075°06'0 0.0 300 / 301020.5 3.9
2017-Mar-22 16:55N 38°48' W 075°06'0 0.0 300 / 301019.9 4.1
2017-Mar-22 15:55N 38°48' W 075°06'0 0.0 330 / 341019.0 4.0
2017-Mar-22 14:56N 38°48' W 075°06'0 0.0 300 / 341018.0 4.8
2017-Mar-22 13:56N 38°48' W 075°06'5 4.7 320 / 301016.5 5.4
2017-Mar-22 12:56N 38°48' W 075°00'8 7.6 330 / 321014.7 6.3
2017-Mar-22 11:56N 38°42' W 074°54'8 7.6 340 / 221013.4 7.2
2017-Mar-22 10:56N 38°36' W 074°48'8 7.6 270 / 221011.9 8.2
2017-Mar-22 09:56N 38°30' W 074°42'1212.0 300 / 181010.6 8.1
2017-Mar-22 08:56N 38°18' W 074°42'1312.9 260 / 191010.2 8.9
2017-Mar-22 07:56N 38°06' W 074°48'8 7.6 270 / 201009.2 9.2
2017-Mar-22 06:56N 38°00' W 074°54'1212.9 270 / 151009.8 9.3
2017-Mar-22 06:00N 37°48' W 074°54'571.1 1012.710.8 8.5 6.5-6.8
2017-Mar-22 05:56N 37°48' W 075°00'1515.6 280 / 131010.3 9.8
2017-Mar-22 04:57N 37°36' W 075°12'8 7.7 280 / 111010.9 11.2
2017-Mar-22 03:57N 37°30' W 075°18'1312.9 310 / 141011.0 11.7
2017-Mar-22 02:57N 37°18' W 075°24'1312.9 320 / 161011.9 11.0
2017-Mar-22 01:57N 37°06' W 075°30'1212.0 020 / 151011.4 10.6
2017-Mar-22 00:57N 36°54' W 075°30'1212.6 020 / 111011.4 9.1
2017-Mar-22 00:00N 36°42' W 075°30'6 5.7 350 / 91014.110.8 10.0 7.3-8.9
2017-Mar-21 22:57N 36°36' W 075°30'1212.0 020 / 91010.9 10.8
2017-Mar-21 21:57N 36°24' W 075°30'1212.0 010 / 111011.1 10.9
2017-Mar-21 20:57N 36°12' W 075°30'1312.9 350 / 171010.7 11.0
2017-Mar-21 19:57N 36°00' W 075°24'1212.0 280 / 141010.5 13.2
2017-Mar-21 18:57N 35°48' W 075°24'1516.3 240 / 121010.2 13.8
2017-Mar-21 18:00N 35°36' W 075°12'8154.6 230 / 151013.210.8 15.911.8-9.4
2017-Mar-21 17:57N 35°42' W 075°18'1212.2 210 / 201010.3 12.9
2017-Mar-21 16:58N 35°30' W 075°18'1313.0 210 / 161011.2 13.4
2017-Mar-21 15:58N 35°18' W 075°12'1212.0 190 / 151012.2 14.7
2017-Mar-21 14:58N 35°06' W 075°12'1615.5 210 / 201013.1 19.1
2017-Mar-21 13:58N 34°54' W 075°24'1211.5 220 / 161013.7 18.7
2017-Mar-21 12:58N 34°48' W 075°36'1211.5 230 / 141014.1 18.4
2017-Mar-21 11:58N 34°42' W 075°48'1313.0 230 / 121013.9 17.3
2017-Mar-21 10:58N 34°30' W 075°54'1211.6 240 / 151014.3 16.7
2017-Mar-21 09:58N 34°24' W 076°06'1211.6 270 / 171015.1 15.9
2017-Mar-21 08:58N 34°18' W 076°18'1615.6 240 / 181014.2 17.1
2017-Mar-21 07:58N 34°06' W 076°30'1211.8 240 / 171015.1 17.1
2017-Mar-21 06:59N 34°00' W 076°42'1313.2 240 / 161015.9 17.0
2017-Mar-21 06:00N 33°48' W 076°48'8468.0 250 / 151019.510.8 15.512.1-21.2
2017-Mar-21 05:59N 33°54' W 076°54'1615.6 240 / 171016.6 16.7
2017-Mar-21 04:59N 33°42' W 077°06'8 7.8 250 / 171017.4 16.5
2017-Mar-21 03:59N 33°36' W 077°12'1615.6 250 / 181018.1 17.0
2017-Mar-21 02:59N 33°24' W 077°24'1211.7 240 / 151018.1 16.7
2017-Mar-21 01:59N 33°18' W 077°36'1515.0 260 / 151018.0 16.3
2017-Mar-21 00:59N 33°18' W 077°54'8 8.0 230 / 121017.7 15.6
2017-Mar-21 00:00N 33°12' W 078°00'1616.0 230 / 131020.010.8 14.5 9.1-18.6
2017-Mar-20 22:59N 33°06' W 078°18'1211.7 220 / 91018.0 14.9
2017-Mar-20 21:59N 33°00' W 078°30'1211.7 240 / 111018.1 15.2
2017-Mar-20 20:59N 32°54' W 078°42'1010.1 220 / 91018.5 14.5
2017-Mar-20 19:59N 32°54' W 078°54'1211.9 190 / 71018.9 13.9
2017-Mar-20 19:00N 32°48' W 079°06'8 7.8 190 / 51019.8 13.8
2017-Mar-20 18:00N 32°42' W 079°12'36 0.8 170 / 51025.610.8 13.4 7.4-16.5
2017-Mar-18 19:49N 32°48' W 079°54'0 0.0 160 / 131015.2 20.4
2017-Mar-18 18:49N 32°48' W 079°54'0 0.0 160 / 111016.1 19.4
2017-Mar-18 17:49N 32°48' W 079°54'0 0.0 180 / 111017.5 21.1
2017-Mar-18 16:49N 32°48' W 079°54'0 0.0 250 / 101019.3 19.8
2017-Mar-18 15:49N 32°48' W 079°54'0 0.0 190 / 91020.7 17.1
2017-Mar-18 14:49N 32°48' W 079°54'0 0.0 220 / 81021.5 14.9
2017-Mar-18 13:49N 32°48' W 079°54'0 0.0 190 / 71021.7 14.4
2017-Mar-18 12:49N 32°48' W 079°54'0 0.0 180 / 61021.7 13.7
2017-Mar-18 11:49N 32°48' W 079°54'0 0.0 190 / 61022.0 13.7
2017-Mar-18 10:49N 32°48' W 079°54'0 0.0 190 / 101022.0 13.8
2017-Mar-18 09:50N 32°48' W 079°54'0 0.0 220 / 71022.1 13.6
2017-Mar-18 08:50N 32°48' W 079°54'0 0.0 190 / 51022.1 12.9
2017-Mar-18 07:50N 32°48' W 079°54'0 0.0 190 / 71022.0 12.7
2017-Mar-18 06:50N 32°48' W 079°54'0 0.0 180 / 51022.8 12.2
2017-Mar-18 05:50N 32°48' W 079°54'0 0.0 190 / 31023.1 12.4
2017-Mar-18 04:50N 32°48' W 079°54'0 0.0 190 / 51023.2 12.6
2017-Mar-18 03:50N 32°48' W 079°54'0 0.0 170 / 51023.7 12.1
2017-Mar-18 02:50N 32°48' W 079°54'0 0.0 170 / 41024.4 11.6
2017-Mar-18 01:50N 32°48' W 079°54'0 0.0 170 / 41024.9 11.9
2017-Mar-18 00:50N 32°48' W 079°54'0 0.0 160 / 51025.2 12.3
2017-Mar-17 22:51N 32°48' W 079°54'0 0.0 160 / 121024.5 14.2
2017-Mar-17 21:51N 32°48' W 079°54'0 0.0 150 / 111024.4 14.9
2017-Mar-17 20:51N 32°48' W 079°54'0 0.0 140 / 111025.0 15.1
2017-Mar-17 19:51N 32°48' W 079°54'0 0.0 140 / 81025.5 15.6
2017-Mar-17 18:51N 32°48' W 079°54'0 0.0 110 / 131025.9 13.8
2017-Mar-17 17:51N 32°48' W 079°54'0 0.0 110 / 111027.0 13.8
2017-Mar-17 16:51N 32°48' W 079°54'0 0.0 110 / 91028.1 13.6
2017-Mar-17 15:51N 32°48' W 079°54'0 0.0 120 / 81028.3 12.9
2017-Mar-17 14:51N 32°48' W 079°54'0 0.0 100 / 41028.5 12.3
2017-Mar-17 13:51N 32°48' W 079°54'0 0.0 340 / 31028.8 7.7
2017-Mar-17 12:52N 32°48' W 079°54'0 0.0 330 / 11028.5 5.1
2017-Mar-17 11:52N 32°48' W 079°54'0 0.0 350 / 21027.7 4.2
2017-Mar-17 10:52N 32°48' W 079°54'0 0.0 350 / 11027.1 5.1
2017-Mar-17 09:52N 32°48' W 079°54'0 0.0 360 / 11026.2 6.3
2017-Mar-17 08:52N 32°48' W 079°54'0 0.0 1025.6 5.1
2017-Mar-17 07:52N 32°48' W 079°54'0 0.0 130 / 11025.3 4.7
2017-Mar-17 06:52N 32°48' W 079°54'0 0.0 180 / 31025.4 5.0
2017-Mar-17 05:52N 32°48' W 079°54'0 0.0 270 / 11025.4 5.5
2017-Mar-17 04:52N 32°48' W 079°54'0 0.0 260 / 31025.4 5.8
2017-Mar-17 03:52N 32°48' W 079°54'0 0.0 230 / 41025.5 6.5
2017-Mar-17 02:53N 32°48' W 079°54'0 0.0 200 / 51025.4 6.7
2017-Mar-17 01:53N 32°48' W 079°54'0 0.0 190 / 51025.1 7.2
2017-Mar-17 00:53N 32°48' W 079°54'0 0.0 250 / 41024.1 9.4
2017-Mar-16 22:53N 32°48' W 079°54'0 0.0 280 / 71022.7 11.1
2017-Mar-16 21:53N 32°48' W 079°54'0 0.0 310 / 41022.4 10.8
2017-Mar-16 20:53N 32°48' W 079°54'0 0.0 260 / 71022.7 10.5
2017-Mar-16 19:53N 32°48' W 079°54'0 0.0 280 / 71023.3 9.0
2017-Mar-16 18:53N 32°48' W 079°54'0 0.0 290 / 71023.8 8.0
2017-Mar-16 17:53N 32°48' W 079°54'0 0.0 330 / 21025.0 6.7
2017-Mar-16 16:53N 32°48' W 079°54'0 0.0 310 / 41025.9 5.2
2017-Mar-16 15:54N 32°48' W 079°54'0 0.0 330 / 91026.3 4.2
2017-Mar-16 14:54N 32°48' W 079°54'0 0.0 330 / 91026.7 3.4
2017-Mar-16 13:54N 32°48' W 079°54'0 0.0 350 / 91026.7 2.3
2017-Mar-16 12:54N 32°48' W 079°54'0 0.0 010 / 91026.0 1.7
2017-Mar-16 11:54N 32°48' W 079°54'0 0.0 340 / 61025.6 0.4
2017-Mar-16 10:54N 32°48' W 079°54'0 0.0 340 / 61025.2 0.7
2017-Mar-16 09:54N 32°48' W 079°54'0 0.0 340 / 61024.7 1.1
2017-Mar-16 08:54N 32°48' W 079°54'0 0.0 330 / 41024.0 1.6
2017-Mar-16 07:54N 32°48' W 079°54'0 0.0 320 / 41023.8 2.3
2017-Mar-16 06:54N 32°48' W 079°54'0 0.0 330 / 51023.8 3.2
2017-Mar-16 05:55N 32°48' W 079°54'0 0.0 330 / 51023.2 3.5
2017-Mar-16 04:55N 32°48' W 079°54'0 0.0 320 / 31022.9 5.0
2017-Mar-16 03:55N 32°48' W 079°54'0 0.0 260 / 71022.6 4.3
2017-Mar-16 02:55N 32°48' W 079°54'0 0.0 260 / 41022.1 4.8
2017-Mar-16 01:54N 32°48' W 079°54'0 0.0 270 / 61021.6 5.3
2017-Mar-16 00:54N 32°48' W 079°54'0 0.0 280 / 41021.0 6.3
2017-Mar-15 22:54N 32°48' W 079°54'0 0.0 300 / 81019.2 8.2
2017-Mar-15 21:54N 32°48' W 079°54'0 0.0 290 / 161018.7 7.9
2017-Mar-15 20:54N 32°48' W 079°54'0 0.0 320 / 81018.5 7.5
2017-Mar-15 19:54N 32°48' W 079°54'0 0.0 300 / 121018.4 7.2
2017-Mar-15 18:55N 32°48' W 079°54'0 0.0 330 / 141018.4 6.7
2017-Mar-15 17:55N 32°48' W 079°54'0 0.0 280 / 171019.3 5.4
2017-Mar-15 16:55N 32°48' W 079°54'0 0.0 300 / 121020.1 4.8
2017-Mar-15 15:55N 32°48' W 079°54'0 0.0 290 / 121020.5 3.8
2017-Mar-15 14:55N 32°48' W 079°54'0 0.0 320 / 61020.1 2.9
2017-Mar-15 13:55N 32°48' W 079°54'0 0.0 310 / 101020.0 2.3
2017-Mar-15 12:55N 32°48' W 079°54'0 0.0 320 / 91019.5 1.9
2017-Mar-15 11:55N 32°48' W 079°54'0 0.0 310 / 61018.5 1.9
2017-Mar-15 10:55N 32°48' W 079°54'0 0.0 320 / 81017.7 2.1
2017-Mar-15 09:55N 32°48' W 079°54'0 0.0 330 / 121016.6 2.9
2017-Mar-15 08:56N 32°48' W 079°54'0 0.0 320 / 111015.5 3.6
2017-Mar-15 07:56N 32°48' W 079°54'0 0.0 330 / 101014.3 5.0
2017-Mar-15 06:56N 32°48' W 079°54'0 0.0 300 / 161014.0 6.0
2017-Mar-15 05:56N 32°48' W 079°54'0 0.0 300 / 121013.2 6.8
2017-Mar-15 04:56N 32°48' W 079°54'0 0.0 280 / 141012.4 7.3
2017-Mar-15 03:56N 32°48' W 079°54'0 0.0 300 / 121011.8 8.7
2017-Mar-15 02:56N 32°48' W 079°54'0 0.0 270 / 161011.2 9.5
2017-Mar-15 01:56N 32°48' W 079°54'0 0.0 270 / 151010.4 10.7
2017-Mar-15 00:56N 32°48' W 079°54'0 0.0 270 / 131009.1 12.6
2017-Mar-14 22:56N 32°48' W 079°54'0 0.0 260 / 91007.5 13.8
2017-Mar-14 21:57N 32°48' W 079°54'0 0.0 260 / 131006.7 14.1
2017-Mar-14 20:57N 32°48' W 079°54'0 0.0 260 / 121007.0 14.3
2017-Mar-14 19:57N 32°48' W 079°54'0 0.0 290 / 141007.6 12.3
2017-Mar-14 18:57N 32°48' W 079°54'0 0.0 270 / 131008.0 11.7
2017-Mar-14 17:57N 32°48' W 079°54'0 0.0 260 / 151008.5 10.8
2017-Mar-14 16:57N 32°48' W 079°54'8 7.8 240 / 191008.6 9.6
2017-Mar-14 15:57N 32°42' W 079°48'8 7.8 240 / 201007.9 8.8
2017-Mar-14 14:57N 32°36' W 079°42'8 7.8 250 / 251007.6 7.7
2017-Mar-14 13:57N 32°30' W 079°36'8 7.9 260 / 311007.0 7.7
2017-Mar-14 12:57N 32°24' W 079°30'8 8.3 250 / 321005.8 8.7
2017-Mar-14 12:00N 32°18' W 079°36'0 0.0 290 / 351006.810.8 10.0 8.1-18.6
2017-Mar-14 11:58N 32°18' W 079°36'1010.1 280 / 301004.1 8.7
2017-Mar-14 10:58N 32°18' W 079°48'6 6.0 270 / 271003.2 8.7
2017-Mar-14 09:58N 32°12' W 079°48'5 5.1 280 / 211003.2 9.1
2017-Mar-14 08:58N 32°12' W 079°54'8 7.9 270 / 261003.7 9.1
2017-Mar-14 07:58N 32°06' W 080°00'8 7.9 270 / 191003.7 10.2
2017-Mar-14 06:58N 32°00' W 080°06'8 8.1 290 / 211004.2 10.5
2017-Mar-14 06:00N 31°54' W 080°12'5152.8 1016.0 5.4 11.810.5-16.9
2017-Mar-14 05:58N 31°54' W 080°18'8 7.9 300 / 91004.8 11.8
2017-Mar-14 04:58N 31°48' W 080°24'8 7.9 060 / 21005.8 11.7
2017-Mar-14 03:58N 31°42' W 080°30'8 7.9 320 / 91007.0 11.6
2017-Mar-14 02:58N 31°36' W 080°36'8 7.9 300 / 121008.6 12.0
2017-Mar-14 01:58N 31°30' W 080°42'6 6.1 310 / 131009.7 12.2
2017-Mar-14 00:59N 31°24' W 080°42'6 6.1 310 / 181009.0 13.0
2017-Mar-14 00:00N 31°18' W 080°42'1615.5 360 / 181012.0 5.4 14.013.2-17.9
2017-Mar-13 22:59N 31°06' W 080°54'8 7.9 330 / 231009.1 14.3
2017-Mar-13 21:59N 31°00' W 081°00'8 7.9 320 / 221009.4 14.3
2017-Mar-13 20:59N 30°54' W 081°06'8 7.9 320 / 251009.9 14.7
2017-Mar-13 19:59N 30°48' W 081°12'6 6.0 320 / 211010.7 15.1
2017-Mar-13 18:59N 30°42' W 081°12'1313.3 310 / 211012.4 14.9
2017-Mar-13 18:00N 30°30' W 081°06'42 3.7 350 / 161016.0 5.4 15.814.8-18.8
2017-Mar-13 06:44N 29°48' W 081°06'8 7.9 360 / 221017.8 17.3
2017-Mar-13 05:44N 29°54' W 081°12'810.8 340 / 271018.0 16.8
2017-Mar-13 05:00N 30°00' W 081°06'519.5 030 / 241021.010.8 15.914.8-19.5
2017-Mar-13 04:44N 30°00' W 081°12'0 0.0 360 / 281018.5 16.0
2017-Mar-13 03:44N 30°00' W 081°12'0 0.0 010 / 301018.6 15.4
2017-Mar-13 02:44N 30°00' W 081°12'0 0.0 010 / 271018.6 15.4
2017-Mar-13 01:44N 30°00' W 081°12'810.8 360 / 261018.8 16.9
2017-Mar-13 01:00N 30°06' W 081°06'519.5 110 / 251021.5 5.4 17.015.4-19.5
2017-Mar-13 00:44N 30°06' W 081°12'6 3.0 010 / 231018.4 16.8
2017-Mar-12 22:44N 30°00' W 081°12'0 0.0 030 / 241017.3 16.6
2017-Mar-12 21:44N 30°00' W 081°12'   010 / 251016.7 16.1

Dump ship's entire track history